createdAt,value
2018-09-29T18:04:12.153Z,54.10
2018-09-29T18:06:40.449Z,53.80
2018-09-29T18:09:10.018Z,54.40
2018-09-29T18:11:38.402Z,54.50
2018-09-29T18:14:06.819Z,55.30
2018-09-29T18:16:35.015Z,55.20
2018-09-29T18:19:03.337Z,55.70
2018-09-29T18:21:31.796Z,55.70
2018-09-29T18:23:59.988Z,55.70
2018-09-29T18:26:28.154Z,56.00
2018-09-29T18:34:37.435Z,56.30
2018-09-29T18:37:05.576Z,56.40
2018-09-29T18:39:33.847Z,56.50
2018-09-29T18:42:02.815Z,56.40
2018-09-29T18:44:31.063Z,55.80
2018-09-29T18:46:59.201Z,56.00
2018-09-29T18:49:27.459Z,56.80
2018-09-29T18:51:56.163Z,57.00
2018-09-29T18:54:24.668Z,57.30
2018-09-29T18:56:53.025Z,57.10
2018-09-29T18:59:21.214Z,56.60
2018-09-29T19:01:49.495Z,57.60
2018-09-29T19:04:17.747Z,57.30
2018-09-29T19:06:45.924Z,57.80
2018-09-29T19:09:14.304Z,57.70
2018-09-29T19:11:43.926Z,57.90
2018-09-29T19:14:12.538Z,57.90
2018-09-29T19:16:40.996Z,58.30
2018-09-29T19:19:09.640Z,58.50
2018-09-29T19:21:38.007Z,59.00
2018-09-29T19:24:06.240Z,59.00
2018-09-29T19:26:34.604Z,58.90
2018-09-29T19:29:03.146Z,59.30
2018-09-29T19:31:32.084Z,59.80
2018-09-29T19:34:00.668Z,58.90
2018-09-29T19:36:32.951Z,58.40
2018-09-29T19:39:01.306Z,59.20
2018-09-29T19:41:29.470Z,58.40
2018-09-29T19:43:58.144Z,59.10
2018-09-29T19:46:26.471Z,58.90
2018-09-29T19:48:55.004Z,58.90
2018-09-29T19:51:23.511Z,59.20
2018-09-29T19:53:52.053Z,59.60
2018-09-29T19:56:20.549Z,59.80
2018-09-29T19:58:48.998Z,60.00
2018-09-29T20:01:17.523Z,60.30
2018-09-29T20:03:46.803Z,60.30
2018-09-29T20:06:15.327Z,60.90
2018-09-29T20:08:43.512Z,61.30
2018-09-29T20:11:11.841Z,61.00
2018-09-29T20:13:40.163Z,61.50
2018-09-29T20:16:08.553Z,61.50
2018-09-29T20:18:37.146Z,61.70
2018-09-29T20:21:05.493Z,61.20
2018-09-29T20:23:34.061Z,61.80
2018-09-29T20:26:02.295Z,62.40
2018-09-29T20:28:30.489Z,62.00
2018-09-29T20:30:58.680Z,62.10
2018-09-29T20:33:27.003Z,62.70
2018-09-29T20:35:56.147Z,62.90
2018-09-29T20:38:24.329Z,63.10
2018-09-29T20:40:52.624Z,63.30
2018-09-29T20:43:20.885Z,63.40
2018-09-29T20:45:49.390Z,63.50
2018-09-29T20:48:17.668Z,63.20
2018-09-29T20:50:46.268Z,63.40
2018-09-29T20:53:14.816Z,63.00
2018-09-29T20:55:42.994Z,63.80
2018-09-29T20:58:11.336Z,63.20
2018-09-29T21:00:39.823Z,63.30
2018-09-29T21:03:08.054Z,63.60
2018-09-29T21:05:36.271Z,63.70
2018-09-29T21:08:04.892Z,63.80
2018-09-29T21:10:33.301Z,64.00
2018-09-29T21:13:01.933Z,64.30
2018-09-29T21:15:30.304Z,64.30
2018-09-29T21:17:58.505Z,64.40
2018-09-29T21:20:27.138Z,64.30
2018-09-29T21:22:56.551Z,64.90
2018-09-29T21:25:25.021Z,64.90
2018-09-29T21:27:53.640Z,64.80
2018-09-29T21:32:44.611Z,64.90
2018-09-29T21:35:12.863Z,64.60
2018-09-29T21:37:41.028Z,64.60
2018-09-29T21:40:09.230Z,64.50
2018-09-29T21:42:37.906Z,64.60
2018-09-29T21:45:06.112Z,64.50
2018-09-29T21:47:34.381Z,63.70
2018-09-29T21:50:02.623Z,64.00
2018-09-29T21:52:30.783Z,64.10
2018-09-29T21:54:58.995Z,63.80
2018-09-29T21:57:27.270Z,64.10
2018-09-29T21:59:56.152Z,64.40
2018-09-29T22:02:24.615Z,64.30
2018-09-29T22:04:52.827Z,64.50
2018-09-29T22:07:21.128Z,64.40
2018-09-29T22:09:49.299Z,64.60
2018-09-29T22:12:17.468Z,64.30
2018-09-29T22:14:46.036Z,64.50
2018-09-29T22:17:14.203Z,64.60
2018-09-29T22:19:42.356Z,64.40
2018-09-29T22:22:10.596Z,64.30
2018-09-29T22:24:38.849Z,63.90
2018-09-29T22:27:07.751Z,63.90
2018-09-29T22:29:35.941Z,63.80
2018-09-29T22:32:04.092Z,63.90
2018-09-29T22:34:32.457Z,63.90
2018-09-29T22:37:00.647Z,63.60
2018-09-29T22:39:28.868Z,63.90
2018-09-29T22:41:57.243Z,63.60
2018-09-29T22:44:25.394Z,63.40
2018-09-29T22:46:53.568Z,63.50
2018-09-29T22:49:21.837Z,62.60
2018-09-29T22:51:49.991Z,63.30
2018-09-29T22:54:18.215Z,63.40
2018-09-29T22:56:46.422Z,63.00
2018-09-29T22:59:14.670Z,63.80
2018-09-29T23:01:42.839Z,63.00
2018-09-29T23:04:11.117Z,63.00
2018-09-29T23:06:39.339Z,63.80
2018-09-29T23:09:09.436Z,63.10
2018-09-29T23:11:37.570Z,63.00
2018-09-29T23:14:05.932Z,62.90
2018-09-29T23:16:34.123Z,62.90
2018-09-29T23:19:02.363Z,63.30
2018-09-29T23:21:30.523Z,63.30
2018-09-29T23:23:58.734Z,63.70
2018-09-29T23:26:26.920Z,63.60
2018-09-29T23:28:55.093Z,63.50
2018-09-29T23:31:23.283Z,63.70
2018-09-29T23:33:51.677Z,63.10
2018-09-29T23:36:19.906Z,63.00
2018-09-29T23:38:48.112Z,63.50
2018-09-29T23:41:16.272Z,63.00
2018-09-29T23:43:44.458Z,62.80
2018-09-29T23:46:12.691Z,61.40
2018-09-29T23:48:40.890Z,62.70
2018-09-29T23:51:09.072Z,61.80
2018-09-29T23:53:37.326Z,62.70
2018-09-29T23:56:05.654Z,62.70
2018-09-29T23:58:33.795Z,63.00
